PWSweather.com
Personal Weather Stations
Station Observations
KMNGREYC2
Grey Cloud Island, Grey Cloud Island, MN 55071

Grey Cloud IslandGrey Cloud Island, MN 55071

Lat: 44.799333, Lon: -92.987851

Elevation: 700

Station Type: Davis VP2

www.jagielski.com/weather/conditions.htm

High Low Average
Temperature 38.2°F3.4°C 7.9°F-13.4°C 24.4°F-4.2°C
Dew Point 36.1°F2.3°C 5.1°F-14.9°C 22.2°F-5.4°C
Winds 6.0 mph 9.7 kmh Calm Calm Calm SCalm S
Wind Gusts 13.0 mph20.9 kmh -- 3.0 mph4.8 kmh
Humidity 97% 84% 91%
Pressure 29.96 in1014.6 mb 29.62 in1003.0 mb -
Precipitation 0.00 in0.0 mm - -
Hour Temp Dew Point Humidity Winds Wind Gusts Pressure Precip Precip Rate Daily Precip Total
12:00 AM 12.8°F-10.7°C 8.9°F-12.8°C 84% Calm Calm 4.0 mph6.4 kmh 29.96 in1014.6 mb 0.00 in0.0 mm 0.00 in0.0 mm 0.00 in0.0 mm
12:15 AM 12.9°F-10.6°C 9.3°F-12.6°C 85% 1.0 mph SSE1.6 kmh SSE 3.0 mph4.8 kmh 29.95 in1014.2 mb 0.00 in0.0 mm 0.00 in0.0 mm 0.00 in0.0 mm
12:30 AM 13.3°F-10.4°C 9.6°F-12.4°C 85% Calm Calm 3.0 mph4.8 kmh 29.95 in1014.2 mb 0.00 in0.0 mm 0.00 in0.0 mm 0.00 in0.0 mm
12:45 AM 13.5°F-10.3°C 10.1°F-12.2°C 86% Calm Calm -- 29.94 in1013.9 mb 0.00 in0.0 mm 0.00 in0.0 mm 0.00 in0.0 mm
01:00 AM 13.4°F-10.3°C 9.7°F-12.4°C 85% Calm Calm -- 29.94 in1013.9 mb 0.00 in0.0 mm 0.00 in0.0 mm 0.00 in0.0 mm
01:15 AM 12.9°F-10.6°C 9.0°F-12.8°C 84% Calm Calm 1.0 mph1.6 kmh 29.94 in1013.9 mb 0.00 in0.0 mm 0.00 in0.0 mm 0.00 in0.0 mm
01:30 AM 12.6°F-10.8°C 9.0°F-12.8°C 85% Calm Calm 2.0 mph3.2 kmh 29.93 in1013.5 mb 0.00 in0.0 mm 0.00 in0.0 mm 0.00 in0.0 mm
01:45 AM 12.2°F-11.0°C 8.3°F-13.2°C 84% Calm Calm 2.0 mph3.2 kmh 29.92 in1013.2 mb 0.00 in0.0 mm 0.00 in0.0 mm 0.00 in0.0 mm
02:00 AM 11.7°F-11.3°C 7.8°F-13.4°C 84% Calm Calm 2.0 mph3.2 kmh 29.92 in1013.2 mb 0.00 in0.0 mm 0.00 in0.0 mm 0.00 in0.0 mm
02:15 AM 11.2°F-11.6°C 7.3°F-13.7°C 84% Calm Calm 2.0 mph3.2 kmh 29.91 in1012.9 mb 0.00 in0.0 mm 0.00 in0.0 mm 0.00 in0.0 mm
02:30 AM 10.7°F-11.8°C 6.8°F-14.0°C 84% Calm Calm 2.0 mph3.2 kmh 29.91 in1012.9 mb 0.00 in0.0 mm 0.00 in0.0 mm 0.00 in0.0 mm
02:45 AM 10.3°F-12.1°C 6.4°F-14.2°C 84% Calm Calm -- 29.90 in1012.5 mb 0.00 in0.0 mm 0.00 in0.0 mm 0.00 in0.0 mm
03:00 AM 9.8°F-12.3°C 5.9°F-14.5°C 84% Calm Calm -- 29.90 in1012.5 mb 0.00 in0.0 mm 0.00 in0.0 mm 0.00 in0.0 mm
03:15 AM 9.4°F-12.6°C 5.8°F-14.6°C 85% Calm Calm 1.0 mph1.6 kmh 29.90 in1012.5 mb 0.00 in0.0 mm 0.00 in0.0 mm 0.00 in0.0 mm
03:30 AM 9.4°F-12.6°C 6.1°F-14.4°C 86% Calm Calm 1.0 mph1.6 kmh 29.89 in1012.2 mb 0.00 in0.0 mm 0.00 in0.0 mm 0.00 in0.0 mm
03:45 AM 9.3°F-12.6°C 6.2°F-14.3°C 87% Calm Calm -- 29.89 in1012.2 mb 0.00 in0.0 mm 0.00 in0.0 mm 0.00 in0.0 mm
04:00 AM 9.3°F-12.6°C 6.2°F-14.3°C 87% Calm Calm 3.0 mph4.8 kmh 29.89 in1012.2 mb 0.00 in0.0 mm 0.00 in0.0 mm 0.00 in0.0 mm
04:15 AM 9.3°F-12.6°C 6.2°F-14.3°C 87% Calm Calm 1.0 mph1.6 kmh 29.88 in1011.9 mb 0.00 in0.0 mm 0.00 in0.0 mm 0.00 in0.0 mm
04:30 AM 9.3°F-12.6°C 6.5°F-14.2°C 88% Calm Calm 1.0 mph1.6 kmh 29.87 in1011.5 mb 0.00 in0.0 mm 0.00 in0.0 mm 0.00 in0.0 mm
04:45 AM 9.2°F-12.7°C 6.4°F-14.2°C 88% Calm Calm -- 29.87 in1011.5 mb 0.00 in0.0 mm 0.00 in0.0 mm 0.00 in0.0 mm
05:00 AM 9.0°F-12.8°C 6.2°F-14.3°C 88% Calm Calm -- 29.87 in1011.5 mb 0.00 in0.0 mm 0.00 in0.0 mm 0.00 in0.0 mm
05:15 AM 8.9°F-12.8°C 6.1°F-14.4°C 88% Calm Calm 3.0 mph4.8 kmh 29.88 in1011.9 mb 0.00 in0.0 mm 0.00 in0.0 mm 0.00 in0.0 mm
05:30 AM 8.7°F-12.9°C 5.9°F-14.5°C 88% Calm Calm 3.0 mph4.8 kmh 29.88 in1011.9 mb 0.00 in0.0 mm 0.00 in0.0 mm 0.00 in0.0 mm
05:45 AM 8.5°F-13.1°C 5.7°F-14.6°C 88% Calm Calm 1.0 mph1.6 kmh 29.88 in1011.9 mb 0.00 in0.0 mm 0.00 in0.0 mm 0.00 in0.0 mm
06:00 AM 8.6°F-13.0°C 6.0°F-14.4°C 89% Calm Calm 1.0 mph1.6 kmh 29.87 in1011.5 mb 0.00 in0.0 mm 0.00 in0.0 mm 0.00 in0.0 mm
06:15 AM 8.6°F-13.0°C 6.0°F-14.4°C 89% Calm Calm -- 29.86 in1011.2 mb 0.00 in0.0 mm 0.00 in0.0 mm 0.00 in0.0 mm
06:30 AM 8.6°F-13.0°C 6.0°F-14.4°C 89% Calm Calm -- 29.86 in1011.2 mb 0.00 in0.0 mm 0.00 in0.0 mm 0.00 in0.0 mm
06:45 AM 8.6°F-13.0°C 6.0°F-14.4°C 89% Calm Calm -- 29.86 in1011.2 mb 0.00 in0.0 mm 0.00 in0.0 mm 0.00 in0.0 mm
07:00 AM 8.4°F-13.1°C 5.8°F-14.6°C 89% Calm Calm -- 29.86 in1011.2 mb 0.00 in0.0 mm 0.00 in0.0 mm 0.00 in0.0 mm
07:15 AM 8.3°F-13.2°C 5.7°F-14.6°C 89% Calm Calm -- 29.87 in1011.5 mb 0.00 in0.0 mm 0.00 in0.0 mm 0.00 in0.0 mm
07:30 AM 8.1°F-13.3°C 5.3°F-14.8°C 88% Calm Calm -- 29.86 in1011.2 mb 0.00 in0.0 mm 0.00 in0.0 mm 0.00 in0.0 mm
07:45 AM 7.9°F-13.4°C 5.3°F-14.8°C 89% Calm Calm -- 29.85 in1010.8 mb 0.00 in0.0 mm 0.00 in0.0 mm 0.00 in0.0 mm
08:00 AM 7.9°F-13.4°C 5.1°F-14.9°C 88% Calm Calm -- 29.86 in1011.2 mb 0.00 in0.0 mm 0.00 in0.0 mm 0.00 in0.0 mm
08:15 AM 7.9°F-13.4°C 5.3°F-14.8°C 89% Calm Calm -- 29.85 in1010.8 mb 0.00 in0.0 mm 0.00 in0.0 mm 0.00 in0.0 mm
08:30 AM 8.4°F-13.1°C 5.8°F-14.6°C 89% Calm Calm -- 29.86 in1011.2 mb 0.00 in0.0 mm 0.00 in0.0 mm 0.00 in0.0 mm
08:45 AM 9.2°F-12.7°C 6.9°F-13.9°C 90% Calm Calm -- 29.86 in1011.2 mb 0.00 in0.0 mm 0.00 in0.0 mm 0.00 in0.0 mm
09:00 AM 10.4°F-12.0°C 8.3°F-13.2°C 91% Calm Calm -- 29.85 in1010.8 mb 0.00 in0.0 mm 0.00 in0.0 mm 0.00 in0.0 mm
09:15 AM 11.8°F-11.2°C 9.9°F-12.3°C 92% Calm Calm -- 29.85 in1010.8 mb 0.00 in0.0 mm 0.00 in0.0 mm 0.00 in0.0 mm
09:30 AM 13.7°F-10.2°C 12.1°F-11.1°C 93% Calm Calm 1.0 mph1.6 kmh 29.85 in1010.8 mb 0.00 in0.0 mm 0.00 in0.0 mm 0.00 in0.0 mm
09:45 AM 16.3°F-8.7°C 14.9°F-9.5°C 94% Calm Calm 1.0 mph1.6 kmh 29.84 in1010.5 mb 0.00 in0.0 mm 0.00 in0.0 mm 0.00 in0.0 mm
10:00 AM 19.2°F-7.1°C 17.8°F-7.9°C 94% Calm Calm 1.0 mph1.6 kmh 29.84 in1010.5 mb 0.00 in0.0 mm 0.00 in0.0 mm 0.00 in0.0 mm
10:15 AM 22.0°F-5.6°C 20.8°F-6.2°C 95% Calm Calm 1.0 mph1.6 kmh 29.84 in1010.5 mb 0.00 in0.0 mm 0.00 in0.0 mm 0.00 in0.0 mm
10:30 AM 23.8°F-4.6°C 22.3°F-5.4°C 94% Calm Calm 2.0 mph3.2 kmh 29.84 in1010.5 mb 0.00 in0.0 mm 0.00 in0.0 mm 0.00 in0.0 mm
10:45 AM 25.2°F-3.8°C 23.5°F-4.7°C 93% Calm Calm 3.0 mph4.8 kmh 29.83 in1010.2 mb 0.00 in0.0 mm 0.00 in0.0 mm 0.00 in0.0 mm
11:00 AM 26.5°F-3.1°C 24.5°F-4.2°C 92% Calm Calm 3.0 mph4.8 kmh 29.83 in1010.2 mb 0.00 in0.0 mm 0.00 in0.0 mm 0.00 in0.0 mm
11:15 AM 27.9°F-2.3°C 25.4°F-3.7°C 90% Calm Calm 2.0 mph3.2 kmh 29.83 in1010.2 mb 0.00 in0.0 mm 0.00 in0.0 mm 0.00 in0.0 mm
11:30 AM 29.2°F-1.6°C 26.6°F-3.0°C 90% Calm Calm 3.0 mph4.8 kmh 29.83 in1010.2 mb 0.00 in0.0 mm 0.00 in0.0 mm 0.00 in0.0 mm
11:45 AM 30.3°F-0.9°C 27.7°F-2.4°C 90% Calm Calm 5.0 mph8.0 kmh 29.83 in1010.2 mb 0.00 in0.0 mm 0.00 in0.0 mm 0.00 in0.0 mm
12:00 PM 31.0°F-0.6°C 28.4°F-2.0°C 90% Calm Calm 5.0 mph8.0 kmh 29.82 in1009.8 mb 0.00 in0.0 mm 0.00 in0.0 mm 0.00 in0.0 mm
12:15 PM 31.7°F-0.2°C 29.4°F-1.4°C 91% 1.0 mph SE1.6 kmh SE 4.0 mph6.4 kmh 29.80 in1009.1 mb 0.00 in0.0 mm 0.00 in0.0 mm 0.00 in0.0 mm
12:30 PM 32.3°F0.2°C 30.0°F-1.1°C 91% Calm Calm 4.0 mph6.4 kmh 29.80 in1009.1 mb 0.00 in0.0 mm 0.00 in0.0 mm 0.00 in0.0 mm
12:45 PM 32.8°F0.4°C 30.2°F-1.0°C 90% Calm Calm 2.0 mph3.2 kmh 29.78 in1008.5 mb 0.00 in0.0 mm 0.00 in0.0 mm 0.00 in0.0 mm
01:00 PM 33.3°F0.7°C 30.7°F-0.7°C 90% Calm Calm 2.0 mph3.2 kmh 29.78 in1008.5 mb 0.00 in0.0 mm 0.00 in0.0 mm 0.00 in0.0 mm
01:15 PM 33.9°F1.1°C 31.0°F-0.6°C 89% Calm Calm 3.0 mph4.8 kmh 29.77 in1008.1 mb 0.00 in0.0 mm 0.00 in0.0 mm 0.00 in0.0 mm
01:30 PM 34.7°F1.5°C 32.1°F0.1°C 90% Calm Calm 3.0 mph4.8 kmh 29.76 in1007.8 mb 0.01 in0.3 mm 0.04 in1.0 mm 0.01 in0.3 mm
01:45 PM 36.3°F2.4°C 34.2°F1.2°C 92% Calm Calm 6.0 mph9.7 kmh 29.75 in1007.5 mb 0.01 in0.3 mm 0.00 in0.0 mm 0.01 in0.3 mm
02:00 PM 37.4°F3.0°C 35.3°F1.8°C 92% Calm Calm 13.0 mph20.9 kmh 29.75 in1007.5 mb 0.02 in0.5 mm 0.01 in0.3 mm 0.02 in0.5 mm
02:15 PM 37.9°F3.3°C 35.8°F2.1°C 92% 3.0 mph WSW4.8 kmh WSW 9.0 mph14.5 kmh 29.74 in1007.1 mb 0.03 in0.8 mm 0.04 in1.0 mm 0.03 in0.8 mm
02:30 PM 38.1°F3.4°C 35.7°F2.1°C 91% 3.0 mph SW4.8 kmh SW 10.0 mph16.1 kmh 29.74 in1007.1 mb 0.03 in0.8 mm 0.00 in0.0 mm 0.03 in0.8 mm
02:45 PM 38.2°F3.4°C 35.8°F2.1°C 91% 6.0 mph SSW9.7 kmh SSW 12.0 mph19.3 kmh 29.74 in1007.1 mb 0.03 in0.8 mm 0.00 in0.0 mm 0.03 in0.8 mm
03:00 PM 38.2°F3.4°C 36.1°F2.3°C 92% 1.0 mph SSW1.6 kmh SSW 12.0 mph19.3 kmh 29.74 in1007.1 mb 0.05 in1.3 mm 0.03 in0.8 mm 0.05 in1.3 mm
03:15 PM 38.1°F3.4°C 36.0°F2.2°C 92% 2.0 mph SSW3.2 kmh SSW 6.0 mph9.7 kmh 29.73 in1006.8 mb 0.04 in1.0 mm 0.00 in0.0 mm 0.05 in1.3 mm
03:30 PM 38.1°F3.4°C 36.0°F2.2°C 92% Calm Calm 6.0 mph9.7 kmh 29.73 in1006.8 mb 0.04 in1.0 mm 0.00 in0.0 mm 0.05 in1.3 mm
03:45 PM 37.9°F3.3°C 35.8°F2.1°C 92% Calm Calm 4.0 mph6.4 kmh 29.73 in1006.8 mb 0.05 in1.3 mm 0.04 in1.0 mm 0.06 in1.5 mm
04:00 PM 37.7°F3.2°C 35.6°F2.0°C 92% 1.0 mph SSW1.6 kmh SSW 5.0 mph8.0 kmh 29.72 in1006.4 mb 0.06 in1.5 mm 0.01 in0.3 mm 0.07 in1.8 mm
04:15 PM 37.5°F3.1°C 35.7°F2.1°C 93% Calm Calm 5.0 mph8.0 kmh 29.72 in1006.4 mb 0.04 in1.0 mm 0.00 in0.0 mm 0.07 in1.8 mm
04:30 PM 37.3°F2.9°C 35.5°F1.9°C 93% Calm Calm 6.0 mph9.7 kmh 29.72 in1006.4 mb 0.05 in1.3 mm 0.04 in1.0 mm 0.08 in2.0 mm
04:45 PM 37.1°F2.8°C 35.3°F1.8°C 93% Calm Calm 5.0 mph8.0 kmh 29.71 in1006.1 mb 0.04 in1.0 mm 0.00 in0.0 mm 0.08 in2.0 mm
05:00 PM 36.9°F2.7°C 35.1°F1.7°C 93% Calm Calm 5.0 mph8.0 kmh 29.70 in1005.8 mb 0.04 in1.0 mm 0.00 in0.0 mm 0.08 in2.0 mm
05:15 PM 36.6°F2.6°C 35.0°F1.7°C 94% Calm Calm 3.0 mph4.8 kmh 29.70 in1005.8 mb 0.04 in1.0 mm 0.00 in0.0 mm 0.08 in2.0 mm
05:30 PM 36.5°F2.5°C 34.9°F1.6°C 94% Calm Calm 4.0 mph6.4 kmh 29.69 in1005.4 mb 0.05 in1.3 mm 0.04 in1.0 mm 0.09 in2.3 mm
05:45 PM 36.3°F2.4°C 34.7°F1.5°C 94% Calm Calm 4.0 mph6.4 kmh 29.68 in1005.1 mb 0.03 in0.8 mm 0.00 in0.0 mm 0.09 in2.3 mm
06:00 PM 36.2°F2.3°C 34.6°F1.4°C 94% Calm Calm 4.0 mph6.4 kmh 29.67 in1004.7 mb 0.04 in1.0 mm 0.01 in0.3 mm 0.10 in2.5 mm
06:15 PM 36.2°F2.3°C 34.9°F1.6°C 95% Calm Calm 2.0 mph3.2 kmh 29.68 in1005.1 mb 0.03 in0.8 mm 0.00 in0.0 mm 0.10 in2.5 mm
06:30 PM 36.0°F2.2°C 34.7°F1.5°C 95% Calm Calm 2.0 mph3.2 kmh 29.68 in1005.1 mb 0.04 in1.0 mm 0.04 in1.0 mm 0.11 in2.8 mm
06:45 PM 35.8°F2.1°C 34.5°F1.4°C 95% Calm Calm 1.0 mph1.6 kmh 29.68 in1005.1 mb 0.02 in0.5 mm 0.00 in0.0 mm 0.11 in2.8 mm
07:00 PM 35.6°F2.0°C 34.3°F1.3°C 95% Calm Calm 1.0 mph1.6 kmh 29.67 in1004.7 mb 0.02 in0.5 mm 0.00 in0.0 mm 0.11 in2.8 mm
07:15 PM 35.5°F1.9°C 34.2°F1.2°C 95% Calm Calm -- 29.67 in1004.7 mb 0.02 in0.5 mm 0.00 in0.0 mm 0.11 in2.8 mm
07:30 PM 35.1°F1.7°C 33.8°F1.0°C 95% Calm Calm -- 29.67 in1004.7 mb 0.02 in0.5 mm 0.00 in0.0 mm 0.11 in2.8 mm
07:45 PM 34.9°F1.6°C 33.6°F0.9°C 95% Calm Calm 3.0 mph4.8 kmh 29.66 in1004.4 mb 0.01 in0.3 mm 0.00 in0.0 mm 0.11 in2.8 mm
08:00 PM 34.9°F1.6°C 33.6°F0.9°C 95% Calm Calm 3.0 mph4.8 kmh 29.66 in1004.4 mb 0.01 in0.3 mm 0.00 in0.0 mm 0.11 in2.8 mm
08:15 PM 35.3°F1.8°C 34.3°F1.3°C 96% Calm Calm 2.0 mph3.2 kmh 29.66 in1004.4 mb 0.02 in0.5 mm 0.04 in1.0 mm 0.12 in3.0 mm
08:30 PM 35.6°F2.0°C 34.6°F1.4°C 96% Calm Calm 2.0 mph3.2 kmh 29.65 in1004.1 mb 0.02 in0.5 mm 0.00 in0.0 mm 0.12 in3.0 mm
08:45 PM 35.6°F2.0°C 34.6°F1.4°C 96% Calm Calm 1.0 mph1.6 kmh 29.64 in1003.7 mb 0.01 in0.3 mm 0.00 in0.0 mm 0.12 in3.0 mm
09:00 PM 35.9°F2.2°C 34.9°F1.6°C 96% Calm Calm 3.0 mph4.8 kmh 29.64 in1003.7 mb 0.01 in0.3 mm 0.00 in0.0 mm 0.12 in3.0 mm
09:15 PM 36.4°F2.4°C 35.4°F1.9°C 96% Calm Calm 3.0 mph4.8 kmh 29.63 in1003.4 mb 0.02 in0.5 mm 0.04 in1.0 mm 0.13 in3.3 mm
09:30 PM 36.8°F2.7°C 35.8°F2.1°C 96% Calm Calm 3.0 mph4.8 kmh 29.64 in1003.7 mb 0.02 in0.5 mm 0.00 in0.0 mm 0.13 in3.3 mm
09:45 PM 37.0°F2.8°C 36.0°F2.2°C 96% Calm Calm 4.0 mph6.4 kmh 29.63 in1003.4 mb 0.02 in0.5 mm 0.00 in0.0 mm 0.13 in3.3 mm
10:00 PM 37.0°F2.8°C 36.0°F2.2°C 96% Calm Calm 4.0 mph6.4 kmh 29.63 in1003.4 mb 0.02 in0.5 mm 0.00 in0.0 mm 0.13 in3.3 mm
10:15 PM 36.9°F2.7°C 35.9°F2.2°C 96% Calm Calm 1.0 mph1.6 kmh 29.64 in1003.7 mb 0.02 in0.5 mm 0.00 in0.0 mm 0.13 in3.3 mm
10:30 PM 36.6°F2.6°C 35.6°F2.0°C 96% Calm Calm 1.0 mph1.6 kmh 29.63 in1003.4 mb 0.02 in0.5 mm 0.00 in0.0 mm 0.13 in3.3 mm
10:45 PM 36.2°F2.3°C 35.2°F1.8°C 96% Calm Calm 1.0 mph1.6 kmh 29.64 in1003.7 mb 0.02 in0.5 mm 0.00 in0.0 mm 0.13 in3.3 mm
11:00 PM 35.8°F2.1°C 34.8°F1.6°C 96% 2.0 mph SW3.2 kmh SW 2.0 mph3.2 kmh 29.64 in1003.7 mb 0.02 in0.5 mm 0.00 in0.0 mm 0.13 in3.3 mm
11:15 PM 36.2°F2.3°C 35.2°F1.8°C 96% Calm Calm 3.0 mph4.8 kmh 29.63 in1003.4 mb 0.02 in0.5 mm 0.00 in0.0 mm 0.13 in3.3 mm
11:30 PM 36.4°F2.4°C 35.4°F1.9°C 96% Calm Calm 3.0 mph4.8 kmh 29.62 in1003.0 mb 0.03 in0.8 mm 0.04 in1.0 mm 0.14 in3.6 mm
11:45 PM 36.9°F2.7°C 36.1°F2.3°C 97% Calm Calm 3.0 mph4.8 kmh 29.62 in1003.0 mb 0.02 in0.5 mm 0.00 in0.0 mm 0.14 in3.6 mm